sensor_id;sensor_type;location;lat;lon;timestamp;P1;durP1;ratioP1;P2;durP2;ratioP2
7515;SDS011;3799;47.184;8.538;2023-09-30T00:01:19;13.70;;;4.82;;
7515;SDS011;3799;47.184;8.538;2023-09-30T00:03:52;12.85;;;3.72;;
7515;SDS011;3799;47.184;8.538;2023-09-30T00:06:23;14.55;;;4.72;;
7515;SDS011;3799;47.184;8.538;2023-09-30T00:08:56;13.98;;;4.88;;
7515;SDS011;3799;47.184;8.538;2023-09-30T00:11:36;15.70;;;4.72;;
7515;SDS011;3799;47.184;8.538;2023-09-30T00:14:05;12.93;;;4.05;;
7515;SDS011;3799;47.184;8.538;2023-09-30T00:16:36;14.95;;;4.78;;
7515;SDS011;3799;47.184;8.538;2023-09-30T00:19:26;14.07;;;4.93;;
7515;SDS011;3799;47.184;8.538;2023-09-30T00:22:00;10.32;;;3.25;;
7515;SDS011;3799;47.184;8.538;2023-09-30T00:24:43;15.93;;;5.18;;
7515;SDS011;3799;47.184;8.538;2023-09-30T00:27:22;13.35;;;3.83;;
7515;SDS011;3799;47.184;8.538;2023-09-30T00:29:49;15.77;;;4.60;;
7515;SDS011;3799;47.184;8.538;2023-09-30T00:32:19;15.30;;;4.50;;
7515;SDS011;3799;47.184;8.538;2023-09-30T00:34:49;10.55;;;3.85;;
7515;SDS011;3799;47.184;8.538;2023-09-30T00:37:27;17.67;;;3.55;;
7515;SDS011;3799;47.184;8.538;2023-09-30T00:39:55;15.13;;;4.32;;
7515;SDS011;3799;47.184;8.538;2023-09-30T00:42:24;11.35;;;3.95;;
7515;SDS011;3799;47.184;8.538;2023-09-30T00:45:01;14.15;;;4.32;;
7515;SDS011;3799;47.184;8.538;2023-09-30T00:47:33;15.07;;;4.40;;
7515;SDS011;3799;47.184;8.538;2023-09-30T00:50:29;12.75;;;3.70;;
7515;SDS011;3799;47.184;8.538;2023-09-30T00:52:57;13.43;;;4.18;;
7515;SDS011;3799;47.184;8.538;2023-09-30T00:55:35;9.68;;;3.80;;
7515;SDS011;3799;47.184;8.538;2023-09-30T00:58:04;11.13;;;3.80;;
7515;SDS011;3799;47.184;8.538;2023-09-30T01:00:36;12.27;;;4.40;;
7515;SDS011;3799;47.184;8.538;2023-09-30T01:03:11;13.75;;;4.13;;
7515;SDS011;3799;47.184;8.538;2023-09-30T01:05:42;12.18;;;4.13;;
7515;SDS011;3799;47.184;8.538;2023-09-30T01:08:26;11.35;;;3.42;;
7515;SDS011;3799;47.184;8.538;2023-09-30T01:10:58;11.68;;;4.63;;
7515;SDS011;3799;47.184;8.538;2023-09-30T01:13:38;18.48;;;4.60;;
7515;SDS011;3799;47.184;8.538;2023-09-30T01:16:08;14.85;;;3.75;;
7515;SDS011;3799;47.184;8.538;2023-09-30T01:18:40;14.77;;;3.67;;
7515;SDS011;3799;47.184;8.538;2023-09-30T01:21:11;13.68;;;3.88;;
7515;SDS011;3799;47.184;8.538;2023-09-30T01:23:42;13.07;;;3.40;;
7515;SDS011;3799;47.184;8.538;2023-09-30T01:26:15;12.95;;;4.32;;
7515;SDS011;3799;47.184;8.538;2023-09-30T01:28:59;13.38;;;3.83;;
7515;SDS011;3799;47.184;8.538;2023-09-30T01:31:28;12.50;;;3.85;;
7515;SDS011;3799;47.184;8.538;2023-09-30T01:33:56;12.25;;;3.80;;
7515;SDS011;3799;47.184;8.538;2023-09-30T01:36:23;12.85;;;4.32;;
7515;SDS011;3799;47.184;8.538;2023-09-30T01:38:58;12.13;;;3.55;;
7515;SDS011;3799;47.184;8.538;2023-09-30T01:41:31;10.85;;;4.03;;
7515;SDS011;3799;47.184;8.538;2023-09-30T01:43:58;13.73;;;4.13;;
7515;SDS011;3799;47.184;8.538;2023-09-30T01:46:25;11.75;;;3.22;;
7515;SDS011;3799;47.184;8.538;2023-09-30T01:48:53;11.45;;;4.22;;
7515;SDS011;3799;47.184;8.538;2023-09-30T01:51:32;16.40;;;4.90;;
7515;SDS011;3799;47.184;8.538;2023-09-30T01:54:02;12.20;;;3.83;;
7515;SDS011;3799;47.184;8.538;2023-09-30T01:56:33;12.32;;;3.38;;
7515;SDS011;3799;47.184;8.538;2023-09-30T01:59:10;10.48;;;3.47;;
7515;SDS011;3799;47.184;8.538;2023-09-30T02:01:45;10.85;;;3.25;;
7515;SDS011;3799;47.184;8.538;2023-09-30T02:04:18;14.38;;;3.90;;
7515;SDS011;3799;47.184;8.538;2023-09-30T02:06:45;14.95;;;3.92;;
7515;SDS011;3799;47.184;8.538;2023-09-30T02:09:23;20.13;;;5.15;;
7515;SDS011;3799;47.184;8.538;2023-09-30T02:11:51;10.98;;;3.47;;
7515;SDS011;3799;47.184;8.538;2023-09-30T02:14:21;13.45;;;4.05;;
7515;SDS011;3799;47.184;8.538;2023-09-30T02:16:50;14.40;;;3.75;;
7515;SDS011;3799;47.184;8.538;2023-09-30T02:19:18;12.65;;;4.45;;
7515;SDS011;3799;47.184;8.538;2023-09-30T02:21:49;13.00;;;4.25;;
7515;SDS011;3799;47.184;8.538;2023-09-30T02:24:16;12.20;;;4.70;;
7515;SDS011;3799;47.184;8.538;2023-09-30T02:26:55;13.63;;;3.85;;
7515;SDS011;3799;47.184;8.538;2023-09-30T02:29:28;16.50;;;4.03;;
7515;SDS011;3799;47.184;8.538;2023-09-30T02:31:58;14.60;;;4.07;;
7515;SDS011;3799;47.184;8.538;2023-09-30T02:34:33;15.85;;;3.65;;
7515;SDS011;3799;47.184;8.538;2023-09-30T02:37:11;11.82;;;3.42;;
7515;SDS011;3799;47.184;8.538;2023-09-30T02:39:57;12.38;;;3.72;;
7515;SDS011;3799;47.184;8.538;2023-09-30T02:42:24;13.82;;;4.05;;
7515;SDS011;3799;47.184;8.538;2023-09-30T02:44:59;12.18;;;3.85;;
7515;SDS011;3799;47.184;8.538;2023-09-30T02:47:33;12.60;;;4.28;;
7515;SDS011;3799;47.184;8.538;2023-09-30T02:50:17;12.02;;;3.63;;
7515;SDS011;3799;47.184;8.538;2023-09-30T02:52:50;12.60;;;4.18;;
7515;SDS011;3799;47.184;8.538;2023-09-30T02:55:17;13.30;;;4.25;;
7515;SDS011;3799;47.184;8.538;2023-09-30T02:57:49;11.63;;;2.97;;
7515;SDS011;3799;47.184;8.538;2023-09-30T03:00:25;14.85;;;3.90;;
7515;SDS011;3799;47.184;8.538;2023-09-30T03:03:06;12.63;;;4.35;;
7515;SDS011;3799;47.184;8.538;2023-09-30T03:05:37;10.48;;;3.33;;
7515;SDS011;3799;47.184;8.538;2023-09-30T03:08:05;11.07;;;3.40;;
7515;SDS011;3799;47.184;8.538;2023-09-30T03:10:42;10.18;;;3.25;;
7515;SDS011;3799;47.184;8.538;2023-09-30T03:13:38;14.13;;;3.92;;
7515;SDS011;3799;47.184;8.538;2023-09-30T03:16:15;11.85;;;4.22;;
7515;SDS011;3799;47.184;8.538;2023-09-30T03:18:46;12.85;;;3.85;;
7515;SDS011;3799;47.184;8.538;2023-09-30T03:21:25;11.23;;;3.72;;
7515;SDS011;3799;47.184;8.538;2023-09-30T03:24:05;10.32;;;3.55;;
7515;SDS011;3799;47.184;8.538;2023-09-30T03:26:35;9.95;;;3.45;;
7515;SDS011;3799;47.184;8.538;2023-09-30T03:29:09;11.57;;;3.75;;
7515;SDS011;3799;47.184;8.538;2023-09-30T03:31:36;12.82;;;3.85;;
7515;SDS011;3799;47.184;8.538;2023-09-30T03:34:16;8.35;;;2.85;;
7515;SDS011;3799;47.184;8.538;2023-09-30T03:36:55;13.38;;;4.57;;
7515;SDS011;3799;47.184;8.538;2023-09-30T03:39:25;13.73;;;4.00;;
7515;SDS011;3799;47.184;8.538;2023-09-30T03:42:19;11.20;;;4.32;;
7515;SDS011;3799;47.184;8.538;2023-09-30T03:44:50;10.18;;;3.95;;
7515;SDS011;3799;47.184;8.538;2023-09-30T03:47:27;9.93;;;3.45;;
7515;SDS011;3799;47.184;8.538;2023-09-30T03:50:04;11.27;;;3.17;;
7515;SDS011;3799;47.184;8.538;2023-09-30T03:52:42;11.48;;;2.97;;
7515;SDS011;3799;47.184;8.538;2023-09-30T03:55:25;10.60;;;3.17;;
7515;SDS011;3799;47.184;8.538;2023-09-30T03:58:04;8.88;;;2.58;;
7515;SDS011;3799;47.184;8.538;2023-09-30T04:00:40;9.35;;;2.65;;
7515;SDS011;3799;47.184;8.538;2023-09-30T04:03:15;8.75;;;2.55;;
7515;SDS011;3799;47.184;8.538;2023-09-30T04:05:59;10.25;;;2.10;;
7515;SDS011;3799;47.184;8.538;2023-09-30T04:08:34;8.65;;;3.08;;
7515;SDS011;3799;47.184;8.538;2023-09-30T04:11:05;9.10;;;2.40;;
7515;SDS011;3799;47.184;8.538;2023-09-30T04:13:52;8.00;;;2.78;;
7515;SDS011;3799;47.184;8.538;2023-09-30T04:18:55;9.60;;;2.75;;
7515;SDS011;3799;47.184;8.538;2023-09-30T04:21:36;9.60;;;2.55;;
7515;SDS011;3799;47.184;8.538;2023-09-30T04:24:05;8.18;;;2.33;;
7515;SDS011;3799;47.184;8.538;2023-09-30T04:26:33;10.13;;;3.25;;
7515;SDS011;3799;47.184;8.538;2023-09-30T04:29:04;11.32;;;3.05;;
7515;SDS011;3799;47.184;8.538;2023-09-30T04:31:32;9.15;;;3.08;;
7515;SDS011;3799;47.184;8.538;2023-09-30T04:34:12;10.27;;;2.83;;
7515;SDS011;3799;47.184;8.538;2023-09-30T04:36:51;9.13;;;3.10;;
7515;SDS011;3799;47.184;8.538;2023-09-30T04:39:26;9.80;;;2.70;;
7515;SDS011;3799;47.184;8.538;2023-09-30T04:41:59;10.85;;;3.08;;
7515;SDS011;3799;47.184;8.538;2023-09-30T04:44:28;9.45;;;2.65;;
7515;SDS011;3799;47.184;8.538;2023-09-30T04:47:03;11.48;;;3.20;;
7515;SDS011;3799;47.184;8.538;2023-09-30T04:49:41;10.50;;;2.92;;
7515;SDS011;3799;47.184;8.538;2023-09-30T04:52:12;9.15;;;2.40;;
7515;SDS011;3799;47.184;8.538;2023-09-30T04:54:47;9.68;;;2.03;;
7515;SDS011;3799;47.184;8.538;2023-09-30T04:57:15;5.65;;;1.83;;
7515;SDS011;3799;47.184;8.538;2023-09-30T04:59:44;8.32;;;2.40;;
7515;SDS011;3799;47.184;8.538;2023-09-30T05:02:11;6.63;;;2.03;;
7515;SDS011;3799;47.184;8.538;2023-09-30T05:04:45;8.23;;;2.60;;
7515;SDS011;3799;47.184;8.538;2023-09-30T05:07:25;7.63;;;1.85;;
7515;SDS011;3799;47.184;8.538;2023-09-30T05:10:03;12.68;;;2.90;;
7515;SDS011;3799;47.184;8.538;2023-09-30T05:12:43;8.02;;;3.05;;
7515;SDS011;3799;47.184;8.538;2023-09-30T05:15:15;8.60;;;2.95;;
7515;SDS011;3799;47.184;8.538;2023-09-30T05:17:44;11.80;;;3.17;;
7515;SDS011;3799;47.184;8.538;2023-09-30T05:20:17;7.80;;;2.58;;
7515;SDS011;3799;47.184;8.538;2023-09-30T05:22:52;11.88;;;3.03;;
7515;SDS011;3799;47.184;8.538;2023-09-30T05:25:32;8.77;;;2.45;;
7515;SDS011;3799;47.184;8.538;2023-09-30T05:28:03;9.35;;;2.72;;
7515;SDS011;3799;47.184;8.538;2023-09-30T05:30:41;11.30;;;3.15;;
7515;SDS011;3799;47.184;8.538;2023-09-30T05:33:23;10.40;;;2.50;;
7515;SDS011;3799;47.184;8.538;2023-09-30T05:35:50;9.48;;;2.90;;
7515;SDS011;3799;47.184;8.538;2023-09-30T05:38:23;11.30;;;2.88;;
7515;SDS011;3799;47.184;8.538;2023-09-30T05:40:59;10.20;;;2.80;;
7515;SDS011;3799;47.184;8.538;2023-09-30T05:43:46;10.00;;;2.78;;
7515;SDS011;3799;47.184;8.538;2023-09-30T05:46:30;7.90;;;2.45;;
7515;SDS011;3799;47.184;8.538;2023-09-30T05:49:04;8.85;;;2.35;;
7515;SDS011;3799;47.184;8.538;2023-09-30T05:51:41;8.27;;;2.35;;
7515;SDS011;3799;47.184;8.538;2023-09-30T05:54:08;9.00;;;2.47;;
7515;SDS011;3799;47.184;8.538;2023-09-30T05:56:41;6.30;;;2.25;;
7515;SDS011;3799;47.184;8.538;2023-09-30T05:59:13;9.68;;;3.75;;
7515;SDS011;3799;47.184;8.538;2023-09-30T06:01:46;9.50;;;3.00;;
7515;SDS011;3799;47.184;8.538;2023-09-30T06:04:21;9.05;;;2.58;;
7515;SDS011;3799;47.184;8.538;2023-09-30T06:07:01;9.95;;;2.35;;
7515;SDS011;3799;47.184;8.538;2023-09-30T06:09:39;12.25;;;2.67;;
7515;SDS011;3799;47.184;8.538;2023-09-30T06:12:16;10.30;;;2.47;;
7515;SDS011;3799;47.184;8.538;2023-09-30T06:15:03;8.52;;;2.45;;
7515;SDS011;3799;47.184;8.538;2023-09-30T06:17:41;7.75;;;2.03;;
7515;SDS011;3799;47.184;8.538;2023-09-30T06:20:24;12.68;;;3.10;;
7515;SDS011;3799;47.184;8.538;2023-09-30T06:23:14;9.00;;;2.60;;
7515;SDS011;3799;47.184;8.538;2023-09-30T06:25:43;9.10;;;2.88;;
7515;SDS011;3799;47.184;8.538;2023-09-30T06:28:23;9.18;;;3.10;;
7515;SDS011;3799;47.184;8.538;2023-09-30T06:31:07;8.85;;;2.88;;
7515;SDS011;3799;47.184;8.538;2023-09-30T06:33:38;9.60;;;3.63;;
7515;SDS011;3799;47.184;8.538;2023-09-30T06:36:23;8.18;;;2.85;;
7515;SDS011;3799;47.184;8.538;2023-09-30T06:38:57;11.98;;;3.40;;
7515;SDS011;3799;47.184;8.538;2023-09-30T06:41:44;7.85;;;2.60;;
7515;SDS011;3799;47.184;8.538;2023-09-30T06:44:16;10.30;;;2.40;;
7515;SDS011;3799;47.184;8.538;2023-09-30T06:46:59;8.27;;;2.63;;
7515;SDS011;3799;47.184;8.538;2023-09-30T06:52:37;7.28;;;2.50;;
7515;SDS011;3799;47.184;8.538;2023-09-30T06:55:37;13.48;;;3.80;;
7515;SDS011;3799;47.184;8.538;2023-09-30T06:58:17;9.88;;;2.65;;
7515;SDS011;3799;47.184;8.538;2023-09-30T07:00:51;9.27;;;2.72;;
7515;SDS011;3799;47.184;8.538;2023-09-30T07:03:30;9.55;;;2.90;;
7515;SDS011;3799;47.184;8.538;2023-09-30T07:06:08;10.57;;;3.35;;
7515;SDS011;3799;47.184;8.538;2023-09-30T07:08:46;8.32;;;2.40;;
7515;SDS011;3799;47.184;8.538;2023-09-30T07:11:18;11.60;;;2.88;;
7515;SDS011;3799;47.184;8.538;2023-09-30T07:14:02;11.35;;;2.70;;
7515;SDS011;3799;47.184;8.538;2023-09-30T07:16:37;11.50;;;2.65;;
7515;SDS011;3799;47.184;8.538;2023-09-30T07:19:08;6.45;;;1.85;;
7515;SDS011;3799;47.184;8.538;2023-09-30T07:21:51;8.25;;;2.10;;
7515;SDS011;3799;47.184;8.538;2023-09-30T07:24:30;8.77;;;2.42;;
7515;SDS011;3799;47.184;8.538;2023-09-30T07:27:10;9.82;;;1.92;;
7515;SDS011;3799;47.184;8.538;2023-09-30T07:29:53;6.10;;;1.73;;
7515;SDS011;3799;47.184;8.538;2023-09-30T07:32:34;7.20;;;2.00;;
7515;SDS011;3799;47.184;8.538;2023-09-30T07:35:02;7.20;;;1.70;;
7515;SDS011;3799;47.184;8.538;2023-09-30T07:37:34;8.98;;;2.05;;
7515;SDS011;3799;47.184;8.538;2023-09-30T07:40:11;7.68;;;1.88;;
7515;SDS011;3799;47.184;8.538;2023-09-30T07:42:46;6.35;;;2.08;;
7515;SDS011;3799;47.184;8.538;2023-09-30T07:45:13;7.15;;;1.65;;
7515;SDS011;3799;47.184;8.538;2023-09-30T07:47:47;5.95;;;1.75;;
7515;SDS011;3799;47.184;8.538;2023-09-30T07:50:33;6.32;;;1.70;;
7515;SDS011;3799;47.184;8.538;2023-09-30T07:53:03;6.30;;;2.38;;
7515;SDS011;3799;47.184;8.538;2023-09-30T07:55:40;7.53;;;2.47;;
7515;SDS011;3799;47.184;8.538;2023-09-30T07:58:10;8.25;;;2.13;;
7515;SDS011;3799;47.184;8.538;2023-09-30T08:00:40;9.43;;;2.13;;
7515;SDS011;3799;47.184;8.538;2023-09-30T08:03:14;6.63;;;1.85;;
7515;SDS011;3799;47.184;8.538;2023-09-30T08:05:52;6.78;;;2.08;;
7515;SDS011;3799;47.184;8.538;2023-09-30T08:08:50;7.18;;;2.13;;
7515;SDS011;3799;47.184;8.538;2023-09-30T08:11:24;8.40;;;1.90;;
7515;SDS011;3799;47.184;8.538;2023-09-30T08:13:56;5.45;;;1.98;;
7515;SDS011;3799;47.184;8.538;2023-09-30T08:16:28;7.43;;;2.35;;
7515;SDS011;3799;47.184;8.538;2023-09-30T08:19:00;6.72;;;1.65;;
7515;SDS011;3799;47.184;8.538;2023-09-30T08:21:30;6.30;;;2.00;;
7515;SDS011;3799;47.184;8.538;2023-09-30T08:24:04;7.82;;;2.00;;
7515;SDS011;3799;47.184;8.538;2023-09-30T08:26:44;6.13;;;1.63;;
7515;SDS011;3799;47.184;8.538;2023-09-30T08:29:23;8.23;;;2.05;;
7515;SDS011;3799;47.184;8.538;2023-09-30T08:31:53;7.88;;;2.05;;
7515;SDS011;3799;47.184;8.538;2023-09-30T08:34:26;5.72;;;1.65;;
7515;SDS011;3799;47.184;8.538;2023-09-30T08:37:06;8.82;;;1.70;;
7515;SDS011;3799;47.184;8.538;2023-09-30T08:39:41;9.85;;;2.22;;
7515;SDS011;3799;47.184;8.538;2023-09-30T08:42:15;7.15;;;1.90;;
7515;SDS011;3799;47.184;8.538;2023-09-30T08:45:09;10.00;;;2.28;;
7515;SDS011;3799;47.184;8.538;2023-09-30T08:47:45;10.10;;;2.67;;
7515;SDS011;3799;47.184;8.538;2023-09-30T08:52:45;8.65;;;2.17;;
7515;SDS011;3799;47.184;8.538;2023-09-30T08:55:22;5.55;;;2.03;;
7515;SDS011;3799;47.184;8.538;2023-09-30T08:57:55;6.22;;;2.50;;
7515;SDS011;3799;47.184;8.538;2023-09-30T09:00:27;7.10;;;1.60;;
7515;SDS011;3799;47.184;8.538;2023-09-30T09:02:54;8.18;;;2.33;;
7515;SDS011;3799;47.184;8.538;2023-09-30T09:05:37;9.15;;;2.53;;
7515;SDS011;3799;47.184;8.538;2023-09-30T09:08:08;6.65;;;1.95;;
7515;SDS011;3799;47.184;8.538;2023-09-30T09:10:53;8.35;;;2.50;;
7515;SDS011;3799;47.184;8.538;2023-09-30T09:13:44;9.95;;;2.80;;
7515;SDS011;3799;47.184;8.538;2023-09-30T09:16:20;10.52;;;2.70;;
7515;SDS011;3799;47.184;8.538;2023-09-30T09:19:14;9.63;;;2.95;;
7515;SDS011;3799;47.184;8.538;2023-09-30T09:22:13;12.57;;;2.60;;
7515;SDS011;3799;47.184;8.538;2023-09-30T09:25:50;7.47;;;2.70;;
7515;SDS011;3799;47.184;8.538;2023-09-30T11:11:41;10.57;;;3.22;;
7515;SDS011;3799;47.184;8.538;2023-09-30T11:14:20;10.07;;;3.15;;
7515;SDS011;3799;47.184;8.538;2023-09-30T11:17:00;12.25;;;3.58;;
7515;SDS011;3799;47.184;8.538;2023-09-30T11:19:36;8.82;;;3.13;;
7515;SDS011;3799;47.184;8.538;2023-09-30T11:22:12;10.85;;;3.28;;
7515;SDS011;3799;47.184;8.538;2023-09-30T11:24:55;7.47;;;2.55;;
7515;SDS011;3799;47.184;8.538;2023-09-30T11:27:23;11.23;;;3.38;;
7515;SDS011;3799;47.184;8.538;2023-09-30T11:30:18;14.05;;;4.60;;
7515;SDS011;3799;47.184;8.538;2023-09-30T11:32:57;13.07;;;3.85;;
7515;SDS011;3799;47.184;8.538;2023-09-30T11:35:40;7.88;;;2.95;;
7515;SDS011;3799;47.184;8.538;2023-09-30T11:38:07;9.40;;;3.35;;
7515;SDS011;3799;47.184;8.538;2023-09-30T11:40:37;11.55;;;3.65;;
7515;SDS011;3799;47.184;8.538;2023-09-30T11:43:06;10.23;;;3.67;;
7515;SDS011;3799;47.184;8.538;2023-09-30T11:45:34;15.10;;;4.40;;
7515;SDS011;3799;47.184;8.538;2023-09-30T11:48:01;12.30;;;4.25;;
7515;SDS011;3799;47.184;8.538;2023-09-30T11:50:45;12.13;;;3.92;;
7515;SDS011;3799;47.184;8.538;2023-09-30T11:53:31;13.38;;;4.13;;
7515;SDS011;3799;47.184;8.538;2023-09-30T11:56:02;9.15;;;3.50;;
7515;SDS011;3799;47.184;8.538;2023-09-30T11:58:29;10.65;;;3.83;;
7515;SDS011;3799;47.184;8.538;2023-09-30T12:00:59;13.50;;;4.35;;
7515;SDS011;3799;47.184;8.538;2023-09-30T12:03:26;10.82;;;3.67;;
7515;SDS011;3799;47.184;8.538;2023-09-30T12:05:54;10.32;;;4.07;;
7515;SDS011;3799;47.184;8.538;2023-09-30T12:08:29;14.20;;;3.97;;
7515;SDS011;3799;47.184;8.538;2023-09-30T12:11:01;12.77;;;4.53;;
7515;SDS011;3799;47.184;8.538;2023-09-30T12:13:28;13.85;;;4.10;;
7515;SDS011;3799;47.184;8.538;2023-09-30T12:16:09;9.27;;;3.33;;
7515;SDS011;3799;47.184;8.538;2023-09-30T12:18:36;16.05;;;4.80;;
7515;SDS011;3799;47.184;8.538;2023-09-30T12:23:48;10.75;;;3.92;;
7515;SDS011;3799;47.184;8.538;2023-09-30T12:26:23;11.30;;;3.70;;
7515;SDS011;3799;47.184;8.538;2023-09-30T12:28:58;11.25;;;3.88;;
7515;SDS011;3799;47.184;8.538;2023-09-30T12:31:26;14.32;;;4.25;;
7515;SDS011;3799;47.184;8.538;2023-09-30T12:34:15;11.65;;;4.20;;
7515;SDS011;3799;47.184;8.538;2023-09-30T12:36:44;11.77;;;4.28;;
7515;SDS011;3799;47.184;8.538;2023-09-30T12:39:24;15.23;;;3.85;;
7515;SDS011;3799;47.184;8.538;2023-09-30T12:41:59;12.82;;;5.32;;
7515;SDS011;3799;47.184;8.538;2023-09-30T12:44:29;10.52;;;4.50;;
7515;SDS011;3799;47.184;8.538;2023-09-30T12:46:56;11.82;;;3.80;;
7515;SDS011;3799;47.184;8.538;2023-09-30T12:49:23;13.02;;;4.22;;
7515;SDS011;3799;47.184;8.538;2023-09-30T12:51:50;11.85;;;4.22;;
7515;SDS011;3799;47.184;8.538;2023-09-30T12:54:18;11.48;;;4.70;;
7515;SDS011;3799;47.184;8.538;2023-09-30T12:56:48;13.60;;;4.50;;
7515;SDS011;3799;47.184;8.538;2023-09-30T12:59:17;12.43;;;4.22;;
7515;SDS011;3799;47.184;8.538;2023-09-30T13:01:46;10.70;;;4.32;;
7515;SDS011;3799;47.184;8.538;2023-09-30T13:04:14;11.88;;;4.47;;
7515;SDS011;3799;47.184;8.538;2023-09-30T13:06:42;13.00;;;4.32;;
7515;SDS011;3799;47.184;8.538;2023-09-30T13:09:21;10.90;;;4.60;;
7515;SDS011;3799;47.184;8.538;2023-09-30T13:11:54;12.95;;;4.40;;
7515;SDS011;3799;47.184;8.538;2023-09-30T13:14:21;14.10;;;4.60;;
7515;SDS011;3799;47.184;8.538;2023-09-30T13:16:48;12.73;;;4.55;;
7515;SDS011;3799;47.184;8.538;2023-09-30T13:19:17;11.60;;;4.65;;
7515;SDS011;3799;47.184;8.538;2023-09-30T13:21:50;12.35;;;4.20;;
7515;SDS011;3799;47.184;8.538;2023-09-30T13:24:21;10.02;;;3.70;;
7515;SDS011;3799;47.184;8.538;2023-09-30T13:27:05;11.40;;;3.70;;
7515;SDS011;3799;47.184;8.538;2023-09-30T13:29:35;10.27;;;4.25;;
7515;SDS011;3799;47.184;8.538;2023-09-30T13:32:02;11.23;;;4.63;;
7515;SDS011;3799;47.184;8.538;2023-09-30T13:34:36;11.18;;;3.65;;
7515;SDS011;3799;47.184;8.538;2023-09-30T13:37:21;13.77;;;4.60;;
7515;SDS011;3799;47.184;8.538;2023-09-30T13:39:57;14.27;;;4.18;;
7515;SDS011;3799;47.184;8.538;2023-09-30T13:42:32;10.43;;;3.50;;
7515;SDS011;3799;47.184;8.538;2023-09-30T13:45:09;11.65;;;3.70;;
7515;SDS011;3799;47.184;8.538;2023-09-30T13:47:41;11.32;;;3.95;;
7515;SDS011;3799;47.184;8.538;2023-09-30T13:50:17;12.57;;;4.32;;
7515;SDS011;3799;47.184;8.538;2023-09-30T13:53:11;9.95;;;3.13;;
7515;SDS011;3799;47.184;8.538;2023-09-30T13:55:48;8.32;;;3.97;;
7515;SDS011;3799;47.184;8.538;2023-09-30T13:58:32;10.15;;;3.10;;
7515;SDS011;3799;47.184;8.538;2023-09-30T14:01:05;12.05;;;3.60;;
7515;SDS011;3799;47.184;8.538;2023-09-30T14:03:56;11.48;;;3.83;;
7515;SDS011;3799;47.184;8.538;2023-09-30T14:06:49;9.93;;;3.80;;
7515;SDS011;3799;47.184;8.538;2023-09-30T14:09:35;11.45;;;3.67;;
7515;SDS011;3799;47.184;8.538;2023-09-30T14:12:07;11.52;;;3.85;;
7515;SDS011;3799;47.184;8.538;2023-09-30T14:15:10;12.27;;;4.25;;
7515;SDS011;3799;47.184;8.538;2023-09-30T14:17:37;12.07;;;4.03;;
7515;SDS011;3799;47.184;8.538;2023-09-30T14:20:26;9.98;;;3.97;;
7515;SDS011;3799;47.184;8.538;2023-09-30T14:23:04;13.48;;;4.07;;
7515;SDS011;3799;47.184;8.538;2023-09-30T14:25:38;10.45;;;3.63;;
7515;SDS011;3799;47.184;8.538;2023-09-30T14:28:24;11.77;;;4.53;;
7515;SDS011;3799;47.184;8.538;2023-09-30T14:31:02;11.52;;;3.95;;
7515;SDS011;3799;47.184;8.538;2023-09-30T14:33:33;10.05;;;3.25;;
7515;SDS011;3799;47.184;8.538;2023-09-30T14:38:29;9.88;;;3.40;;
7515;SDS011;3799;47.184;8.538;2023-09-30T14:40:58;14.02;;;4.15;;
7515;SDS011;3799;47.184;8.538;2023-09-30T14:43:27;12.45;;;3.90;;
7515;SDS011;3799;47.184;8.538;2023-09-30T14:45:54;9.88;;;3.33;;
7515;SDS011;3799;47.184;8.538;2023-09-30T14:48:25;14.27;;;3.78;;
7515;SDS011;3799;47.184;8.538;2023-09-30T14:50:52;8.55;;;3.35;;
7515;SDS011;3799;47.184;8.538;2023-09-30T14:53:27;14.93;;;3.65;;
7515;SDS011;3799;47.184;8.538;2023-09-30T14:55:56;8.38;;;2.90;;
7515;SDS011;3799;47.184;8.538;2023-09-30T14:58:28;8.00;;;2.97;;
7515;SDS011;3799;47.184;8.538;2023-09-30T15:01:15;10.20;;;3.05;;
7515;SDS011;3799;47.184;8.538;2023-09-30T15:04:12;11.90;;;3.80;;
7515;SDS011;3799;47.184;8.538;2023-09-30T15:06:55;11.20;;;3.90;;
7515;SDS011;3799;47.184;8.538;2023-09-30T15:09:28;12.20;;;3.30;;
7515;SDS011;3799;47.184;8.538;2023-09-30T15:12:02;11.07;;;3.30;;
7515;SDS011;3799;47.184;8.538;2023-09-30T15:14:33;20.38;;;5.57;;
7515;SDS011;3799;47.184;8.538;2023-09-30T15:17:00;22.92;;;5.18;;
7515;SDS011;3799;47.184;8.538;2023-09-30T15:19:29;11.65;;;3.95;;
7515;SDS011;3799;47.184;8.538;2023-09-30T15:22:18;21.67;;;6.82;;
7515;SDS011;3799;47.184;8.538;2023-09-30T15:24:49;14.63;;;4.35;;
7515;SDS011;3799;47.184;8.538;2023-09-30T15:27:16;20.30;;;6.65;;
7515;SDS011;3799;47.184;8.538;2023-09-30T15:29:48;11.70;;;3.67;;
7515;SDS011;3799;47.184;8.538;2023-09-30T15:32:21;16.23;;;4.28;;
7515;SDS011;3799;47.184;8.538;2023-09-30T15:34:48;17.48;;;5.20;;
7515;SDS011;3799;47.184;8.538;2023-09-30T15:37:20;11.88;;;3.55;;
7515;SDS011;3799;47.184;8.538;2023-09-30T15:40:04;15.45;;;4.80;;
7515;SDS011;3799;47.184;8.538;2023-09-30T15:42:53;12.35;;;3.72;;
7515;SDS011;3799;47.184;8.538;2023-09-30T15:45:35;9.82;;;2.85;;
7515;SDS011;3799;47.184;8.538;2023-09-30T15:48:03;9.68;;;3.90;;
7515;SDS011;3799;47.184;8.538;2023-09-30T15:50:34;9.70;;;3.15;;
7515;SDS011;3799;47.184;8.538;2023-09-30T15:53:03;14.05;;;4.50;;
7515;SDS011;3799;47.184;8.538;2023-09-30T15:55:30;13.43;;;4.45;;
7515;SDS011;3799;47.184;8.538;2023-09-30T15:57:58;10.45;;;3.42;;
7515;SDS011;3799;47.184;8.538;2023-09-30T16:00:28;12.57;;;4.22;;
7515;SDS011;3799;47.184;8.538;2023-09-30T16:03:06;14.45;;;3.90;;
7515;SDS011;3799;47.184;8.538;2023-09-30T16:05:35;12.00;;;3.92;;
7515;SDS011;3799;47.184;8.538;2023-09-30T16:08:09;10.25;;;3.45;;
7515;SDS011;3799;47.184;8.538;2023-09-30T16:10:42;11.00;;;3.83;;
7515;SDS011;3799;47.184;8.538;2023-09-30T16:13:20;15.60;;;4.57;;
7515;SDS011;3799;47.184;8.538;2023-09-30T16:16:08;12.55;;;3.70;;
7515;SDS011;3799;47.184;8.538;2023-09-30T16:18:46;10.20;;;3.80;;
7515;SDS011;3799;47.184;8.538;2023-09-30T16:21:14;12.00;;;3.65;;
7515;SDS011;3799;47.184;8.538;2023-09-30T16:26:20;12.35;;;3.83;;
7515;SDS011;3799;47.184;8.538;2023-09-30T16:28:47;14.40;;;3.70;;
7515;SDS011;3799;47.184;8.538;2023-09-30T16:31:15;10.40;;;4.50;;
7515;SDS011;3799;47.184;8.538;2023-09-30T16:33:44;8.77;;;3.40;;
7515;SDS011;3799;47.184;8.538;2023-09-30T16:36:23;10.02;;;3.95;;
7515;SDS011;3799;47.184;8.538;2023-09-30T16:38:51;8.65;;;3.63;;
7515;SDS011;3799;47.184;8.538;2023-09-30T16:41:18;10.35;;;3.03;;
7515;SDS011;3799;47.184;8.538;2023-09-30T16:43:50;9.80;;;4.38;;
7515;SDS011;3799;47.184;8.538;2023-09-30T16:46:45;10.20;;;2.90;;
7515;SDS011;3799;47.184;8.538;2023-09-30T16:49:15;11.05;;;3.88;;
7515;SDS011;3799;47.184;8.538;2023-09-30T16:52:03;9.18;;;3.00;;
7515;SDS011;3799;47.184;8.538;2023-09-30T16:54:34;9.63;;;3.10;;
7515;SDS011;3799;47.184;8.538;2023-09-30T16:57:08;12.30;;;3.22;;
7515;SDS011;3799;47.184;8.538;2023-09-30T16:59:38;10.13;;;3.50;;
7515;SDS011;3799;47.184;8.538;2023-09-30T17:02:24;11.85;;;3.38;;
7515;SDS011;3799;47.184;8.538;2023-09-30T17:04:52;12.35;;;2.85;;
7515;SDS011;3799;47.184;8.538;2023-09-30T17:07:24;10.20;;;3.03;;
7515;SDS011;3799;47.184;8.538;2023-09-30T17:09:55;9.98;;;3.47;;
7515;SDS011;3799;47.184;8.538;2023-09-30T17:12:33;8.90;;;3.75;;
7515;SDS011;3799;47.184;8.538;2023-09-30T17:15:04;10.00;;;2.80;;
7515;SDS011;3799;47.184;8.538;2023-09-30T17:17:32;8.20;;;2.40;;
7515;SDS011;3799;47.184;8.538;2023-09-30T17:20:02;8.73;;;2.95;;
7515;SDS011;3799;47.184;8.538;2023-09-30T17:22:33;11.95;;;3.95;;
7515;SDS011;3799;47.184;8.538;2023-09-30T17:25:00;10.27;;;3.17;;
7515;SDS011;3799;47.184;8.538;2023-09-30T17:27:36;9.60;;;3.20;;
7515;SDS011;3799;47.184;8.538;2023-09-30T17:30:07;11.50;;;3.30;;
7515;SDS011;3799;47.184;8.538;2023-09-30T17:32:48;9.75;;;3.00;;
7515;SDS011;3799;47.184;8.538;2023-09-30T17:35:15;9.07;;;2.95;;
7515;SDS011;3799;47.184;8.538;2023-09-30T17:37:44;8.43;;;3.22;;
7515;SDS011;3799;47.184;8.538;2023-09-30T17:40:13;8.38;;;2.75;;
7515;SDS011;3799;47.184;8.538;2023-09-30T17:42:41;8.13;;;2.80;;
7515;SDS011;3799;47.184;8.538;2023-09-30T17:45:11;10.70;;;2.72;;
7515;SDS011;3799;47.184;8.538;2023-09-30T18:12:44;8.75;;;2.40;;
7515;SDS011;3799;47.184;8.538;2023-09-30T18:15:12;11.95;;;3.55;;
7515;SDS011;3799;47.184;8.538;2023-09-30T18:17:39;9.18;;;2.63;;
7515;SDS011;3799;47.184;8.538;2023-09-30T18:20:22;9.82;;;3.50;;